createdAt,value
2023-05-05T00:00:29.647Z,28.95
2023-05-05T00:05:34.821Z,30.55
2023-05-05T00:10:40.239Z,30.83
2023-05-05T00:15:47.792Z,32.78
2023-05-05T00:20:53.658Z,32.33
2023-05-05T00:25:58.912Z,31.00
2023-05-05T00:31:04.446Z,29.92
2023-05-05T00:36:10.200Z,31.42
2023-05-05T00:41:15.804Z,33.05
2023-05-05T00:46:29.285Z,32.03
2023-05-05T00:51:35.165Z,37.83
2023-05-05T00:56:40.315Z,37.38
2023-05-05T01:01:45.723Z,35.05
2023-05-05T01:07:20.629Z,40.70
2023-05-05T01:12:54.031Z,39.35
2023-05-05T01:18:18.619Z,46.10
2023-05-05T01:23:53.792Z,39.75
2023-05-05T01:29:27.929Z,45.17
2023-05-05T01:34:47.066Z,45.13
2023-05-05T01:39:58.170Z,43.58
2023-05-05T01:45:06.836Z,39.10
2023-05-05T01:50:13.658Z,42.20
2023-05-05T01:55:21.106Z,45.75
2023-05-05T02:00:28.435Z,44.85
2023-05-05T02:05:35.203Z,44.95
2023-05-05T02:10:44.973Z,45.60
2023-05-05T02:15:52.397Z,36.85
2023-05-05T02:20:59.725Z,42.35
2023-05-05T02:26:10.329Z,35.72
2023-05-05T02:31:16.721Z,44.63
2023-05-05T02:36:29.358Z,47.33
2023-05-05T02:41:41.586Z,38.90
2023-05-05T02:46:56.778Z,40.85
2023-05-05T02:52:03.165Z,39.38
2023-05-05T02:57:15.426Z,36.92
2023-05-05T03:02:56.339Z,35.97
2023-05-05T03:08:20.675Z,36.85
2023-05-05T03:18:40.129Z,40.37
2023-05-05T03:23:45.705Z,41.00
2023-05-05T03:28:57.496Z,45.70
2023-05-05T03:34:07.636Z,43.28
2023-05-05T03:39:20.344Z,40.75
2023-05-05T03:44:28.445Z,33.47
2023-05-05T03:49:34.611Z,43.45
2023-05-05T03:54:40.871Z,44.85
2023-05-05T03:59:46.434Z,36.88
2023-05-05T04:04:52.581Z,36.17
2023-05-05T04:09:58.551Z,38.75
2023-05-05T04:15:04.552Z,39.50
2023-05-05T04:25:17.791Z,43.15
2023-05-05T04:30:24.409Z,44.42
2023-05-05T04:35:30.273Z,47.72
2023-05-05T04:40:40.180Z,45.22
2023-05-05T04:45:57.500Z,40.17
2023-05-05T04:51:08.382Z,28.40
2023-05-05T04:56:14.970Z,41.15
2023-05-05T05:01:20.439Z,42.33
2023-05-05T05:11:30.774Z,39.22
2023-05-05T05:21:42.716Z,42.13
2023-05-05T05:26:48.225Z,36.13
2023-05-05T05:31:54.351Z,38.03
2023-05-05T05:37:00.558Z,32.92
2023-05-05T05:42:06.046Z,36.75
2023-05-05T05:52:17.374Z,32.80
2023-05-05T05:57:24.088Z,31.85
2023-05-05T06:02:30.008Z,34.22
2023-05-05T06:07:35.557Z,34.53
2023-05-05T06:17:46.857Z,30.92
2023-05-05T06:22:52.512Z,36.13
2023-05-05T06:28:04.434Z,33.00
2023-05-05T06:33:09.857Z,32.92
2023-05-05T06:38:15.322Z,29.67
2023-05-05T06:43:21.024Z,30.73
2023-05-05T06:48:31.961Z,29.95
2023-05-05T06:58:42.622Z,27.05
2023-05-05T07:03:47.851Z,27.85
2023-05-05T07:13:58.391Z,24.48
2023-05-05T07:19:06.900Z,23.98
2023-05-05T07:24:12.735Z,26.17
2023-05-05T07:29:17.986Z,25.02
2023-05-05T07:34:23.319Z,25.95
2023-05-05T07:44:33.652Z,26.17
2023-05-05T07:49:38.896Z,23.38
2023-05-05T07:54:44.284Z,26.98
2023-05-05T07:59:50.289Z,26.77
2023-05-05T08:04:55.738Z,28.13
2023-05-05T08:10:01.584Z,23.90
2023-05-05T08:15:08.782Z,23.45
2023-05-05T08:20:14.942Z,22.80
2023-05-05T08:25:20.208Z,21.50
2023-05-05T08:30:26.390Z,22.45
2023-05-05T08:35:31.904Z,21.70
2023-05-05T08:40:40.887Z,25.85
2023-05-05T08:45:47.224Z,20.27
2023-05-05T08:51:01.979Z,22.27
2023-05-05T08:56:09.710Z,20.02
2023-05-05T09:01:16.391Z,21.40
2023-05-05T09:06:27.070Z,21.05
2023-05-05T09:11:32.783Z,22.10
2023-05-05T09:16:37.979Z,20.85
2023-05-05T09:21:50.764Z,19.55
2023-05-05T09:26:59.010Z,20.67
2023-05-05T09:32:12.465Z,26.08
2023-05-05T09:37:30.556Z,21.05
2023-05-05T09:42:36.861Z,21.10
2023-05-05T09:47:43.279Z,23.08
2023-05-05T09:52:58.047Z,20.98
2023-05-05T09:58:24.908Z,20.83
2023-05-05T10:03:30.453Z,22.85
2023-05-05T10:08:36.419Z,22.30
2023-05-05T10:13:44.410Z,24.85
2023-05-05T10:18:50.055Z,21.30
2023-05-05T10:24:24.177Z,22.98
2023-05-05T10:29:57.179Z,24.55
2023-05-05T10:35:10.167Z,24.20
2023-05-05T10:40:17.547Z,21.05
2023-05-05T10:45:23.397Z,22.40
2023-05-05T10:50:38.332Z,25.88
2023-05-05T10:56:04.199Z,23.23
2023-05-05T11:01:10.817Z,22.35
2023-05-05T11:06:16.847Z,24.33
2023-05-05T11:12:00.884Z,26.13
2023-05-05T11:17:09.226Z,25.10
2023-05-05T11:22:14.933Z,25.75
2023-05-05T11:27:20.308Z,24.63
2023-05-05T11:32:26.464Z,23.90
2023-05-05T11:37:31.777Z,24.13
2023-05-05T11:42:37.444Z,24.35
2023-05-05T11:47:43.002Z,25.15
2023-05-05T11:52:49.368Z,23.92
2023-05-05T11:57:58.017Z,24.02
2023-05-05T12:03:03.627Z,23.52
2023-05-05T12:08:09.129Z,25.33
2023-05-05T12:13:22.318Z,23.70
2023-05-05T12:18:27.917Z,22.58
2023-05-05T12:23:40.888Z,24.63
2023-05-05T12:28:50.334Z,22.95
2023-05-05T12:33:55.762Z,23.25
2023-05-05T12:39:01.158Z,23.40
2023-05-05T12:44:06.658Z,23.42
2023-05-05T12:49:12.309Z,24.30
2023-05-05T12:54:18.006Z,24.90
2023-05-05T12:59:26.462Z,24.67
2023-05-05T13:04:32.025Z,23.70
2023-05-05T13:09:37.540Z,23.23
2023-05-05T13:14:43.774Z,23.63
2023-05-05T13:19:49.170Z,24.35
2023-05-05T13:24:54.934Z,24.10
2023-05-05T13:30:00.567Z,24.30
2023-05-05T13:35:07.825Z,23.20
2023-05-05T13:40:16.695Z,23.05
2023-05-05T13:45:22.364Z,23.40
2023-05-05T13:50:27.590Z,24.65
2023-05-05T13:55:33.323Z,25.00
2023-05-05T14:00:39.639Z,23.35
2023-05-05T14:05:45.047Z,23.42
2023-05-05T14:10:51.527Z,25.35
2023-05-05T14:15:59.749Z,24.13
2023-05-05T14:21:04.957Z,23.77
2023-05-05T14:31:15.474Z,23.63
2023-05-05T14:36:21.019Z,21.85
2023-05-05T14:46:32.689Z,22.30
2023-05-05T14:51:37.996Z,19.05
2023-05-05T14:56:43.911Z,23.00
2023-05-05T15:01:49.785Z,22.80
2023-05-05T15:06:55.280Z,21.88
2023-05-05T15:12:01.076Z,23.63
2023-05-05T15:17:06.839Z,23.35
2023-05-05T15:22:12.406Z,22.27
2023-05-05T15:32:23.512Z,21.50
2023-05-05T15:37:30.316Z,21.17
2023-05-05T15:42:35.981Z,16.08
2023-05-05T15:47:42.280Z,21.15
2023-05-05T15:52:49.792Z,20.83
2023-05-05T15:58:04.003Z,23.65
2023-05-05T16:03:09.316Z,21.40
2023-05-05T16:13:20.090Z,20.38
2023-05-05T16:18:25.540Z,21.50
2023-05-05T16:28:41.911Z,21.73
2023-05-05T16:33:48.172Z,21.73
2023-05-05T16:38:53.659Z,20.63
2023-05-05T16:43:58.851Z,20.85
2023-05-05T16:54:09.980Z,22.52
2023-05-05T16:59:18.264Z,15.65
2023-05-05T17:04:23.793Z,21.33
2023-05-05T17:09:28.974Z,22.42
2023-05-05T17:14:35.037Z,24.42
2023-05-05T17:19:40.521Z,21.90
2023-05-05T17:29:50.819Z,22.83
2023-05-05T17:34:56.375Z,24.27
2023-05-05T17:40:01.869Z,23.95
2023-05-05T17:45:08.204Z,23.98
2023-05-05T17:50:14.110Z,23.48
2023-05-05T17:55:20.031Z,23.65
2023-05-05T18:00:25.468Z,23.42
2023-05-05T18:05:32.187Z,23.67
2023-05-05T18:10:38.256Z,23.83
2023-05-05T18:15:43.950Z,25.08
2023-05-05T18:22:07.723Z,23.92
2023-05-05T18:26:51.110Z,23.83
2023-05-05T18:31:56.726Z,25.40
2023-05-05T18:37:02.188Z,25.02
2023-05-05T18:47:12.420Z,24.83
2023-05-05T18:57:23.506Z,23.23
2023-05-05T19:02:28.908Z,21.63
2023-05-05T19:12:41.190Z,21.08
2023-05-05T19:22:51.585Z,20.60
2023-05-05T19:33:01.817Z,19.95
2023-05-05T19:43:11.685Z,19.58
2023-05-05T19:48:17.528Z,19.55
2023-05-05T19:53:22.734Z,18.30
2023-05-05T19:58:27.975Z,18.98
2023-05-05T20:03:33.423Z,20.25
2023-05-05T20:13:43.507Z,18.60
2023-05-05T20:23:55.793Z,20.27
2023-05-05T20:29:00.916Z,20.42
2023-05-05T20:34:07.063Z,19.30
2023-05-05T20:39:17.535Z,20.25
2023-05-05T20:44:22.596Z,19.77
2023-05-05T20:49:27.800Z,19.50
2023-05-05T20:54:35.360Z,19.70
2023-05-05T20:59:40.924Z,19.60
2023-05-05T21:04:46.594Z,18.45
2023-05-05T21:15:00.841Z,23.50
2023-05-05T21:20:06.530Z,20.35
2023-05-05T21:25:16.714Z,20.98
2023-05-05T21:30:22.168Z,21.20
2023-05-05T21:35:27.838Z,19.00
2023-05-05T21:40:32.856Z,18.73
2023-05-05T21:45:38.318Z,19.35
2023-05-05T21:50:44.398Z,18.50
2023-05-05T21:55:49.896Z,19.80
2023-05-05T22:06:00.189Z,19.65
2023-05-05T22:11:05.976Z,20.98
2023-05-05T22:16:13.736Z,22.15
2023-05-05T22:21:18.885Z,20.67
2023-05-05T22:26:23.919Z,18.88
2023-05-05T22:31:30.814Z,18.67
2023-05-05T22:36:36.719Z,19.05
2023-05-05T22:41:41.837Z,17.90
2023-05-05T22:46:47.455Z,19.77
2023-05-05T22:51:53.276Z,18.73
2023-05-05T22:56:58.636Z,20.30
2023-05-05T23:02:04.090Z,21.63
2023-05-05T23:07:12.911Z,22.30
2023-05-05T23:12:21.448Z,21.27
2023-05-05T23:22:31.822Z,19.08
2023-05-05T23:27:37.467Z,21.13
2023-05-05T23:37:50.479Z,20.80
2023-05-05T23:42:55.566Z,21.15
2023-05-05T23:48:01.024Z,22.73
2023-05-05T23:53:06.710Z,23.65
2023-05-05T23:58:12.349Z,23.00
